Time;durP1;ratioP1;P1;durP2;ratioP2;P2;SDS_P1;SDS_P2;PMS_P1;PMS_P2;Temp;Humidity;BMP_temperature;BMP_pressure;BME280_temperature;BME280_humidity;BME280_pressure;Samples;Min_cycle;Max_cycle;Signal;HPM_P1;HPM_P2
2022/07/27 00:02:44;;;;;;;2.97;1.73;;;;;;;21.33;48.58;99048.16;5201705;28;20042;-73
2022/07/27 00:05:40;;;;;;;3.15;1.45;;;;;;;21.44;48.77;99044.00;5187375;28;20322;-73
2022/07/27 00:08:31;;;;;;;8.52;1.58;;;;;;;21.74;48.61;99048.88;5203010;28;20170;-73
2022/07/27 00:11:21;;;;;;;2.63;1.80;;;;;;;21.54;48.89;99047.06;5199705;28;20341;-73
2022/07/27 00:14:12;;;;;;;3.50;1.98;;;;;;;21.57;49.00;99046.66;5202261;28;20071;-73
2022/07/27 00:17:02;;;;;;;3.20;1.52;;;;;;;21.43;49.46;99046.94;5203584;28;20076;-73
2022/07/27 00:19:52;;;;;;;4.05;1.60;;;;;;;21.66;48.23;99049.13;5188638;28;20053;-72
2022/07/27 00:22:42;;;;;;;8.02;1.77;;;;;;;21.28;49.16;99049.81;5202344;28;20107;-73
2022/07/27 00:25:32;;;;;;;5.88;1.77;;;;;;;21.22;49.41;99050.66;5203074;28;20068;-72
2022/07/27 00:28:23;;;;;;;2.63;1.95;;;;;;;21.23;49.47;99039.69;5202052;28;20065;-73
2022/07/27 00:31:13;;;;;;;7.13;1.95;;;;;;;21.01;50.16;99022.94;5202199;28;20053;-72
2022/07/27 00:34:03;;;;;;;5.30;1.90;;;;;;;21.22;49.44;99037.19;5202849;28;20474;-73
2022/07/27 00:36:54;;;;;;;2.70;1.58;;;;;;;21.24;49.52;99035.94;5202248;28;20127;-73
2022/07/27 00:39:44;;;;;;;3.20;1.85;;;;;;;21.04;50.08;99045.94;5202975;28;20119;-73
2022/07/27 00:42:35;;;;;;;2.65;1.80;;;;;;;21.12;49.84;99034.91;5200476;28;20076;-73
2022/07/27 00:45:25;;;;;;;3.33;1.83;;;;;;;21.23;50.26;99049.66;5201493;28;20076;-73
2022/07/27 00:48:15;;;;;;;6.05;2.03;;;;;;;21.30;49.75;99047.75;5202903;28;20052;-73
2022/07/27 00:51:05;;;;;;;4.97;1.92;;;;;;;21.21;51.44;99027.44;5200698;28;20061;-73
2022/07/27 00:53:55;;;;;;;7.63;2.13;;;;;;;21.24;49.71;99035.94;5202082;28;20041;-73
2022/07/27 00:56:46;;;;;;;2.63;1.90;;;;;;;21.13;50.28;99028.50;5202220;28;20053;-72
2022/07/27 00:59:37;;;;;;;5.35;1.90;;;;;;;21.05;50.51;99024.16;5202957;28;20079;-73
2022/07/27 01:02:27;;;;;;;4.40;2.30;;;;;;;21.03;50.66;99028.94;5201703;28;20447;-73
2022/07/27 01:05:18;;;;;;;4.38;1.85;;;;;;;20.93;50.79;99027.72;5202838;28;20190;-73
2022/07/27 01:08:12;;;;;;;4.20;2.05;;;;;;;20.92;51.00;99020.66;5188527;28;20060;-73
2022/07/27 01:11:03;;;;;;;3.28;2.60;;;;;;;20.92;50.64;99023.34;5201128;28;20463;-73
2022/07/27 01:13:53;;;;;;;4.10;2.10;;;;;;;20.94;50.49;99030.19;5200962;28;20404;-72
2022/07/27 01:16:43;;;;;;;3.58;1.77;;;;;;;21.04;50.81;99033.28;5201446;28;20075;-73
2022/07/27 01:19:35;;;;;;;3.20;2.20;;;;;;;21.05;50.50;99021.47;5202213;28;20061;-73
2022/07/27 01:22:25;;;;;;;5.07;2.30;;;;;;;21.05;50.67;99029.53;5201023;28;20061;-73
2022/07/27 01:25:16;;;;;;;3.30;2.10;;;;;;;20.87;51.78;99024.00;5201349;28;20055;-73
2022/07/27 01:28:06;;;;;;;5.50;2.35;;;;;;;20.96;51.22;99025.44;5186675;28;20072;-73
2022/07/27 01:30:56;;;;;;;5.22;2.35;;;;;;;21.03;50.94;99012.78;5201718;28;20052;-73
2022/07/27 01:33:46;;;;;;;4.07;2.33;;;;;;;21.03;50.73;99018.16;5201912;28;20045;-73
2022/07/27 01:36:37;;;;;;;4.75;2.58;;;;;;;21.15;50.84;99009.41;5197072;28;20052;-73
2022/07/27 01:39:28;;;;;;;4.80;2.25;;;;;;;21.01;50.56;99009.44;5201569;28;20050;-73
2022/07/27 01:42:18;;;;;;;4.55;2.00;;;;;;;20.92;50.81;99008.00;5206853;28;20111;-73
2022/07/27 01:45:09;;;;;;;3.50;2.20;;;;;;;20.88;50.79;98991.44;5223321;28;20060;-73
2022/07/27 01:47:59;;;;;;;2.80;2.00;;;;;;;20.71;51.95;99000.19;5202488;28;20175;-73
2022/07/27 01:50:51;;;;;;;3.15;2.05;;;;;;;20.88;51.47;98967.19;5204140;28;20175;-73
2022/07/27 01:53:41;;;;;;;5.95;2.20;;;;;;;20.77;52.09;99000.16;5205435;28;20091;-73
2022/07/27 01:56:32;;;;;;;3.65;2.28;;;;;;;20.70;52.21;98987.75;5206194;28;20080;-73
2022/07/27 01:59:22;;;;;;;8.40;2.55;;;;;;;20.78;52.54;99004.50;5205734;28;20175;-73
2022/07/27 02:02:15;;;;;;;9.32;2.67;;;;;;;20.55;52.56;98974.50;5204706;28;20056;-73
2022/07/27 02:05:05;;;;;;;11.60;2.53;;;;;;;20.24;53.89;98994.78;5206455;28;20057;-73
2022/07/27 02:07:56;;;;;;;4.32;2.33;;;;;;;20.36;53.50;98989.59;5205893;28;20064;-73
2022/07/27 02:13:55;;;;;;;3.50;2.60;;;;;;;20.15;53.44;98994.13;5205158;28;20051;-73
2022/07/27 02:16:45;;;;;;;4.45;2.55;;;;;;;20.40;52.55;98983.59;5204807;28;20057;-73
2022/07/27 02:19:35;;;;;;;3.95;2.63;;;;;;;20.33;52.88;98996.22;5205978;28;20072;-73
2022/07/27 02:22:26;;;;;;;4.45;2.63;;;;;;;20.27;52.92;99007.00;5200392;28;20094;-73
2022/07/27 02:25:17;;;;;;;4.68;3.20;;;;;;;20.52;52.73;98994.59;5205805;28;20061;-73
2022/07/27 02:28:08;;;;;;;5.20;2.70;;;;;;;20.42;52.49;98997.66;5205473;28;20136;-73
2022/07/27 02:30:58;;;;;;;6.35;3.05;;;;;;;20.27;52.87;98982.78;5205263;28;20167;-73
2022/07/27 02:33:48;;;;;;;5.07;2.78;;;;;;;20.13;53.25;98982.75;5205302;28;20151;-73
2022/07/27 02:36:38;;;;;;;4.03;2.97;;;;;;;20.01;54.36;98994.34;5192237;28;20270;-73
2022/07/27 02:39:29;;;;;;;6.57;3.13;;;;;;;20.22;53.61;98991.44;5205387;28;20061;-73
2022/07/27 02:42:19;;;;;;;4.57;3.00;;;;;;;20.35;52.99;98977.97;5204130;28;20164;-72
2022/07/27 02:45:09;;;;;;;3.22;2.58;;;;;;;20.30;53.05;98977.78;5203474;28;20056;-73
2022/07/27 02:47:59;;;;;;;14.93;3.28;;;;;;;20.21;53.87;98988.97;5204647;28;20061;-73
2022/07/27 02:50:50;;;;;;;5.25;2.75;;;;;;;19.88;54.16;98971.75;5204510;28;20136;-72
2022/07/27 02:53:40;;;;;;;4.10;3.08;;;;;;;19.92;54.69;98988.31;5204579;28;20643;-73
2022/07/27 02:56:30;;;;;;;6.43;3.05;;;;;;;19.99;54.23;98985.63;5191681;28;20053;-73
2022/07/27 02:59:21;;;;;;;6.10;3.33;;;;;;;19.82;54.52;98987.88;5203784;28;20076;-73
2022/07/27 03:02:11;;;;;;;4.53;3.00;;;;;;;19.64;55.16;98994.66;5202765;28;20110;-73
2022/07/27 03:05:07;;;;;;;5.45;3.47;;;;;;;19.56;54.63;98975.13;5204362;28;20057;-73
2022/07/27 03:07:57;;;;;;;5.85;3.15;;;;;;;19.57;55.27;98988.41;5204565;28;20518;-73
2022/07/27 03:10:48;;;;;;;4.07;2.88;;;;;;;19.49;55.38;98996.63;5203119;28;20554;-73
2022/07/27 03:13:38;;;;;;;4.25;3.28;;;;;;;19.38;55.43;98989.16;5189292;28;20096;-73
2022/07/27 03:16:29;;;;;;;4.00;3.08;;;;;;;19.32;55.33;99000.72;5202510;28;20056;-73
2022/07/27 03:19:19;;;;;;;4.00;3.40;;;;;;;19.21;56.00;99007.50;5204687;28;20109;-73
2022/07/27 03:22:09;;;;;;;4.07;3.30;;;;;;;19.07;56.16;99000.34;5188077;28;20080;-73
2022/07/27 03:25:00;;;;;;;3.95;3.40;;;;;;;19.04;56.92;99006.97;5203266;28;20084;-73
2022/07/27 03:27:50;;;;;;;4.32;3.20;;;;;;;19.11;55.99;99005.16;5204462;28;20057;-73
2022/07/27 03:30:40;;;;;;;6.65;3.50;;;;;;;19.12;55.63;99006.81;5202903;28;20054;-73
2022/07/27 03:33:31;;;;;;;12.45;3.83;;;;;;;19.07;56.03;98993.13;5190215;28;20084;-73
2022/07/27 03:36:21;;;;;;;6.30;3.45;;;;;;;18.94;57.47;99009.16;5203854;28;20137;-73
2022/07/27 03:39:12;;;;;;;7.68;4.00;;;;;;;18.99;57.34;99004.88;5203993;28;20428;-73
2022/07/27 03:42:03;;;;;;;5.50;3.65;;;;;;;19.15;57.25;99010.97;5202204;28;20118;-73
2022/07/27 03:44:54;;;;;;;4.15;3.55;;;;;;;19.20;56.51;99003.97;5218092;23;20717;-73
2022/07/27 03:47:44;;;;;;;5.20;3.50;;;;;;;19.28;56.31;99020.97;5198224;28;20108;-70
2022/07/27 03:50:35;;;;;;;4.53;3.40;;;;;;;19.11;57.16;99017.78;5198209;28;20052;-71
2022/07/27 03:53:25;;;;;;;5.25;3.78;;;;;;;19.30;56.73;99017.03;5197403;28;20056;-73
2022/07/27 03:56:16;;;;;;;10.40;3.72;;;;;;;19.23;56.59;99022.38;5203342;28;20049;-71
2022/07/27 03:59:06;;;;;;;9.13;4.13;;;;;;;19.18;56.79;99010.56;5203717;28;20041;-71
2022/07/27 04:01:56;;;;;;;7.25;3.78;;;;;;;19.24;56.86;99017.84;5202329;28;20191;-71
2022/07/27 04:04:47;;;;;;;6.78;4.07;;;;;;;19.14;57.09;99009.28;5203766;28;20134;-71
2022/07/27 04:07:39;;;;;;;8.02;4.30;;;;;;;19.30;56.82;99008.97;5198663;28;20188;-70
2022/07/27 04:10:29;;;;;;;5.38;3.67;;;;;;;19.33;56.49;99016.63;5202809;28;20060;-70
2022/07/27 04:13:21;;;;;;;8.73;4.07;;;;;;;19.22;57.10;99020.72;5195939;28;20049;-69
2022/07/27 04:16:12;;;;;;;5.18;4.05;;;;;;;19.20;56.77;99021.94;5194097;28;20060;-69
2022/07/27 04:19:02;;;;;;;10.43;3.85;;;;;;;19.33;57.13;99037.31;5201442;28;20052;-71
2022/07/27 04:21:53;;;;;;;6.53;4.25;;;;;;;19.31;57.20;99037.53;5201751;28;20072;-68
2022/07/27 04:24:43;;;;;;;5.97;3.95;;;;;;;19.27;57.61;99033.56;5189201;28;20415;-69
2022/07/27 04:27:33;;;;;;;5.35;4.47;;;;;;;19.41;57.11;99037.97;5203052;28;20104;-68
2022/07/27 04:30:23;;;;;;;6.60;3.80;;;;;;;19.50;57.14;99025.19;5202891;28;20550;-68
2022/07/27 04:33:13;;;;;;;6.30;3.80;;;;;;;19.59;56.31;99033.91;5196734;28;20499;-69
2022/07/27 04:36:04;;;;;;;4.22;3.83;;;;;;;19.65;56.15;99033.16;5203311;28;20056;-69
2022/07/27 04:38:54;;;;;;;9.07;4.43;;;;;;;19.62;56.40;99037.03;5196506;28;20060;-68
2022/07/27 04:41:45;;;;;;;6.50;4.15;;;;;;;19.51;57.09;99044.84;5197935;28;20186;-68
2022/07/27 04:44:36;;;;;;;5.63;4.07;;;;;;;19.71;56.85;99041.22;5195421;28;20486;-67
2022/07/27 04:47:26;;;;;;;5.25;3.83;;;;;;;19.80;56.21;99041.91;5201105;28;20061;-67
2022/07/27 04:50:17;;;;;;;4.80;4.15;;;;;;;19.98;55.53;99041.31;5202575;28;20090;-70
2022/07/27 04:53:09;;;;;;;5.18;3.88;;;;;;;19.99;55.83;99045.66;5201683;28;20060;-70
2022/07/27 04:55:59;;;;;;;6.22;4.00;;;;;;;19.90;56.25;99058.50;5202265;28;20506;-69
2022/07/27 04:58:50;;;;;;;10.60;4.18;;;;;;;19.93;56.78;99041.09;5203065;28;20052;-69
2022/07/27 05:01:39;;;;;;;11.65;4.70;;;;;;;19.95;57.40;99039.03;5201028;28;20130;-67
2022/07/27 05:04:30;;;;;;;6.97;4.30;;;;;;;19.98;56.59;99054.78;5202561;28;20174;-67
2022/07/27 05:07:20;;;;;;;4.50;4.10;;;;;;;20.28;56.13;99047.16;5200132;28;20129;-67
2022/07/27 05:10:11;;;;;;;7.20;4.40;;;;;;;20.32;55.58;99058.34;5199919;28;20056;-68
2022/07/27 05:13:08;;;;;;;6.60;4.47;;;;;;;20.28;56.12;99065.19;5195155;28;20115;-68
2022/07/27 05:15:59;;;;;;;6.35;4.50;;;;;;;20.33;56.21;99074.31;5198614;28;20541;-68
2022/07/27 05:18:49;;;;;;;5.68;4.40;;;;;;;20.11;57.96;99084.41;5195237;28;20100;-68
2022/07/27 05:21:39;;;;;;;7.88;4.72;;;;;;;20.31;56.15;99067.47;5196393;28;20131;-67
2022/07/27 05:24:29;;;;;;;7.43;4.57;;;;;;;20.16;56.80;99071.19;5196091;28;20660;-68
2022/07/27 05:27:20;;;;;;;7.57;4.35;;;;;;;20.15;56.97;99079.44;5195121;28;20057;-67
2022/07/27 05:30:10;;;;;;;5.88;4.05;;;;;;;20.29;56.18;99073.06;5196667;28;20140;-68
2022/07/27 05:33:02;;;;;;;7.47;4.13;;;;;;;20.34;56.19;99080.53;5193340;28;20053;-68
2022/07/27 05:35:55;;;;;;;5.00;4.15;;;;;;;20.10;56.30;99085.47;5196838;28;20077;-68
2022/07/27 05:38:45;;;;;;;6.82;4.18;;;;;;;20.39;55.86;99084.25;5189969;28;20053;-68
2022/07/27 05:41:35;;;;;;;5.45;4.10;;;;;;;20.61;55.58;99086.81;5161577;28;20052;-68
2022/07/27 05:44:26;;;;;;;6.18;3.92;;;;;;;20.55;55.79;99093.84;5169639;28;20073;-68
2022/07/27 05:47:16;;;;;;;7.60;4.05;;;;;;;20.62;54.57;99091.97;5173267;28;20104;-68
2022/07/27 05:50:06;;;;;;;5.97;4.60;;;;;;;20.83;55.12;99095.53;5174146;28;20433;-68
2022/07/27 05:52:59;;;;;;;5.80;4.00;;;;;;;20.82;55.04;99096.53;5180947;28;20991;-68
2022/07/27 05:55:51;;;;;;;4.55;3.75;;;;;;;20.95;54.47;99098.41;5178962;28;20049;-68
2022/07/27 05:58:48;;;;;;;7.07;4.00;;;;;;;20.90;54.53;99103.63;5173619;28;20041;-68
2022/07/27 06:01:38;;;;;;;5.05;3.92;;;;;;;21.04;53.50;99108.78;5177537;28;20055;-67
2022/07/27 06:04:29;;;;;;;9.55;3.97;;;;;;;20.68;55.05;99114.56;5196202;28;20064;-67
2022/07/27 06:10:31;;;;;;;5.82;4.00;;;;;;;21.07;54.72;99113.75;5168327;28;20640;-68
2022/07/27 06:13:21;;;;;;;5.25;3.78;;;;;;;21.26;54.49;99103.16;5170582;28;20491;-67
2022/07/27 06:16:17;;;;;;;6.78;3.95;;;;;;;21.37;53.37;99107.94;5173465;28;20061;-68
2022/07/27 06:19:08;;;;;;;5.25;3.65;;;;;;;21.14;54.04;99112.91;5161079;28;20053;-68
2022/07/27 06:21:59;;;;;;;8.63;3.88;;;;;;;21.21;53.17;99117.25;5180065;28;20065;-68
2022/07/27 06:24:50;;;;;;;3.88;3.40;;;;;;;21.52;52.74;99122.00;5171453;28;20128;-68
2022/07/27 06:27:40;;;;;;;7.40;3.40;;;;;;;21.56;52.31;99122.41;5181937;28;20159;-68
2022/07/27 06:30:31;;;;;;;6.07;3.38;;;;;;;21.02;53.04;99124.31;5178985;28;20061;-67
2022/07/27 06:33:26;;;;;;;4.95;3.42;;;;;;;21.29;52.50;99100.88;5165711;28;20416;-68
2022/07/27 06:36:18;;;;;;;7.78;3.42;;;;;;;21.68;52.35;99118.00;5175356;28;20495;-67
2022/07/27 06:39:08;;;;;;;4.40;3.53;;;;;;;21.85;52.24;99112.94;5166204;28;20211;-67
2022/07/27 06:41:59;;;;;;;6.18;3.88;;;;;;;21.84;52.24;99108.59;5168427;28;20065;-68
2022/07/27 06:44:53;;;;;;;6.85;4.30;;;;;;;22.02;51.46;99110.63;5164845;28;20475;-67
2022/07/27 06:47:43;;;;;;;12.20;4.18;;;;;;;21.95;51.60;99109.81;5171711;28;20142;-68
2022/07/27 06:50:38;;;;;;;6.70;3.35;;;;;;;22.14;51.62;99116.16;5172196;28;20523;-68
2022/07/27 06:53:29;;;;;;;5.93;3.60;;;;;;;22.27;51.47;99119.63;5174699;28;20066;-68
2022/07/27 06:56:25;;;;;;;4.60;3.17;;;;;;;22.12;51.69;99120.94;5190075;28;20120;-68
2022/07/27 06:59:16;;;;;;;6.07;3.60;;;;;;;22.07;52.15;99112.66;5179608;28;20060;-68
2022/07/27 07:02:06;;;;;;;8.05;3.65;;;;;;;22.26;51.12;99111.78;5184122;28;20054;-68
2022/07/27 07:04:56;;;;;;;5.90;3.50;;;;;;;22.32;51.22;99116.31;5176810;28;20171;-68
2022/07/27 07:07:46;;;;;;;5.22;3.15;;;;;;;22.38;51.61;99110.00;5164916;28;20079;-68
2022/07/27 07:10:38;;;;;;;4.80;3.00;;;;;;;22.50;51.40;99113.69;5192837;28;20114;-68
2022/07/27 07:13:29;;;;;;;4.03;3.10;;;;;;;22.83;49.74;99112.63;5166856;28;20067;-68
2022/07/27 07:16:25;;;;;;;3.60;3.30;;;;;;;22.67;50.30;99113.16;5172271;28;20140;-68
2022/07/27 07:19:16;;;;;;;4.97;3.00;;;;;;;23.13;49.47;99117.38;5169945;28;20057;-68
2022/07/27 07:22:06;;;;;;;3.47;3.08;;;;;;;23.13;48.29;99122.78;5175427;28;20129;-68
2022/07/27 07:24:56;;;;;;;5.07;3.40;;;;;;;23.10;49.38;99109.72;5177954;28;21911;-68
2022/07/27 07:27:52;;;;;;;7.18;3.65;;;;;;;23.35;48.83;99115.09;5176550;28;20058;-68
2022/07/27 07:30:43;;;;;;;3.67;2.92;;;;;;;23.39;48.90;99117.13;5170400;28;20088;-68
2022/07/27 07:33:33;;;;;;;4.00;2.80;;;;;;;23.41;49.14;99114.19;5179560;28;20127;-68
2022/07/27 07:36:23;;;;;;;6.20;3.30;;;;;;;23.45;48.91;99118.13;5184663;28;20546;-68
2022/07/27 07:39:13;;;;;;;3.30;3.00;;;;;;;23.55;48.70;99115.72;5180585;28;20093;-68
2022/07/27 07:42:04;;;;;;;7.50;3.17;;;;;;;22.89;50.04;99105.50;5182674;28;20060;-68
2022/07/27 07:45:00;;;;;;;5.88;3.13;;;;;;;23.37;49.16;99112.97;5178126;28;20081;-68
2022/07/27 07:47:51;;;;;;;12.48;3.35;;;;;;;24.22;47.83;99110.34;5171178;28;20186;-68
2022/07/27 07:50:41;;;;;;;8.25;3.20;;;;;;;23.90;48.08;99104.28;5170254;28;20095;-68
2022/07/27 07:53:32;;;;;;;3.65;3.00;;;;;;;24.34;46.37;99103.09;5193676;28;20544;-68
2022/07/27 07:56:28;;;;;;;5.20;3.05;;;;;;;25.19;46.12;99103.84;5165461;28;20129;-68
2022/07/27 07:59:19;;;;;;;9.02;2.90;;;;;;;24.16;47.45;99095.00;5180162;28;20203;-68
2022/07/27 08:02:09;;;;;;;5.38;3.00;;;;;;;24.18;45.74;99109.16;5182797;28;20064;-68
2022/07/27 08:04:59;;;;;;;6.53;3.50;;;;;;;24.54;45.60;99112.84;5179249;28;20295;-68
2022/07/27 08:07:50;;;;;;;7.50;2.90;;;;;;;24.53;45.57;99112.00;5175049;28;20057;-68
2022/07/27 08:10:41;;;;;;;4.30;2.75;;;;;;;24.70;46.23;99111.31;5176088;28;20076;-68
2022/07/27 08:13:31;;;;;;;5.97;3.35;;;;;;;24.79;46.17;99110.75;5171227;28;20061;-68
2022/07/27 08:16:21;;;;;;;4.32;2.85;;;;;;;24.96;45.34;99101.94;5167741;28;20053;-68
2022/07/27 08:19:11;;;;;;;4.57;2.75;;;;;;;25.07;44.90;99107.38;5169914;28;20252;-68
2022/07/27 08:22:02;;;;;;;5.40;2.78;;;;;;;23.33;47.65;99109.91;5172958;28;20050;-67
2022/07/27 08:24:52;;;;;;;4.18;3.20;;;;;;;23.56;48.33;99127.38;5181603;28;20132;-68
2022/07/27 08:27:42;;;;;;;3.83;2.80;;;;;;;24.18;47.94;99127.28;5181811;28;20052;-68
2022/07/27 08:30:37;;;;;;;8.70;2.70;;;;;;;24.47;47.75;99103.97;5179341;28;20567;-68
2022/07/27 08:33:28;;;;;;;6.40;2.80;;;;;;;24.96;46.28;99107.34;5171011;28;20058;-68
2022/07/27 08:36:18;;;;;;;3.67;2.70;;;;;;;24.72;45.74;99130.91;5165662;28;20301;-68
2022/07/27 08:39:08;;;;;;;3.35;2.85;;;;;;;24.86;45.78;99126.91;5171144;28;20056;-68
2022/07/27 08:42:03;;;;;;;6.05;3.05;;;;;;;24.47;46.80;99125.63;5166695;28;20055;-68
2022/07/27 08:44:54;;;;;;;4.85;2.97;;;;;;;24.96;45.66;99118.19;5166249;28;20061;-68
2022/07/27 08:47:45;;;;;;;6.97;2.65;;;;;;;24.92;45.47;99117.84;5164979;28;20210;-68
2022/07/27 08:50:35;;;;;;;2.88;2.55;;;;;;;24.87;45.85;99111.47;5181270;28;20144;-68
2022/07/27 08:53:30;;;;;;;4.35;3.30;;;;;;;23.37;47.88;99119.22;5181503;28;20069;-68
2022/07/27 08:56:42;;;;;;;5.10;2.50;;;;;;;23.86;47.66;99119.34;5181557;28;20050;-68
2022/07/27 08:59:32;;;;;;;4.10;2.80;;;;;;;24.77;45.97;99120.19;5179401;28;20053;-68
2022/07/27 09:02:23;;;;;;;7.93;2.75;;;;;;;24.97;45.60;99119.88;5181579;28;20518;-68
2022/07/27 09:05:14;;;;;;;7.85;3.28;;;;;;;25.07;45.21;99128.25;5183739;28;20419;-68
2022/07/27 09:08:25;;;;;;;3.95;2.85;;;;;;;25.52;44.66;99131.22;5183865;28;20060;-68
2022/07/27 09:11:15;;;;;;;5.35;3.22;;;;;;;25.30;45.13;99127.47;5177249;28;20046;-68
2022/07/27 09:14:08;;;;;;;5.68;3.05;;;;;;;26.91;43.80;99118.44;5173995;28;20073;-69
2022/07/27 09:16:59;;;;;;;3.72;3.08;;;;;;;26.89;41.04;99112.44;5190571;28;20142;-68
2022/07/27 09:20:15;;;;;;;4.57;2.78;;;;;;;28.16;38.92;99115.31;5167483;28;20486;-68
2022/07/27 09:23:07;;;;;;;7.38;3.08;;;;;;;27.66;40.41;99099.97;5170391;28;20068;-68
2022/07/27 09:26:12;;;;;;;6.95;3.13;;;;;;;28.08;39.44;99109.25;5168000;28;20073;-68
2022/07/27 09:29:19;;;;;;;4.65;2.60;;;;;;;28.69;38.87;99108.22;5168252;28;20084;-68
2022/07/27 09:32:16;;;;;;;4.55;2.45;;;;;;;28.87;37.57;99098.81;5164773;28;20116;-68
2022/07/27 09:35:24;;;;;;;4.55;2.60;;;;;;;29.94;37.88;99094.84;5171721;28;20582;-68
2022/07/27 09:38:23;;;;;;;3.55;2.40;;;;;;;28.72;37.86;99099.53;5178507;28;20064;-68
2022/07/27 09:41:13;;;;;;;6.00;2.90;;;;;;;27.23;40.11;99107.00;5178161;28;21015;-68
2022/07/27 09:44:03;;;;;;;4.60;2.65;;;;;;;29.27;38.55;99098.31;5179413;28;20495;-68
2022/07/27 09:47:25;;;;;;;5.70;2.90;;;;;;;28.36;38.65;99103.78;5180878;28;20134;-69
2022/07/27 09:50:22;;;;;;;6.13;2.85;;;;;;;28.66;37.31;99108.75;5172566;28;20050;-69
2022/07/27 09:53:17;;;;;;;3.15;2.15;;;;;;;29.69;34.85;99100.22;5171458;28;20685;-69
2022/07/27 09:56:30;;;;;;;5.10;2.20;;;;;;;30.53;34.50;99101.00;5167911;28;20187;-69
2022/07/27 09:59:20;;;;;;;4.95;2.10;;;;;;;29.54;36.31;99103.69;5176422;28;20068;-69
2022/07/27 10:02:12;;;;;;;3.13;2.28;;;;;;;29.49;34.98;99101.72;5176090;28;20435;-69
2022/07/27 10:05:04;;;;;;;2.97;2.10;;;;;;;28.86;37.40;99086.25;5177665;28;20151;-69
2022/07/27 10:07:54;;;;;;;2.63;2.20;;;;;;;28.31;38.28;99108.13;5176942;28;20089;-69
2022/07/27 10:10:45;;;;;;;8.38;2.28;;;;;;;28.63;39.75;99107.34;5172699;28;20111;-69
2022/07/27 10:13:35;;;;;;;3.22;2.20;;;;;;;28.51;38.93;99085.72;5168678;28;20741;-69
2022/07/27 10:16:35;;;;;;;4.20;2.25;;;;;;;29.46;36.93;99085.03;5179683;28;20061;-69
2022/07/27 10:19:40;;;;;;;3.40;2.40;;;;;;;28.18;37.70;99094.06;5184613;28;20518;-69
2022/07/27 10:22:54;;;;;;;3.60;2.72;;;;;;;29.96;34.37;99095.38;5181931;28;20114;-69
2022/07/27 10:25:44;;;;;;;5.32;2.65;;;;;;;28.92;37.12;99079.75;5174965;28;20500;-69
2022/07/27 10:28:48;;;;;;;4.50;2.47;;;;;;;29.75;35.15;99093.69;5183094;28;20176;-69
2022/07/27 10:31:40;;;;;;;6.00;2.78;;;;;;;29.68;36.15;99093.13;5167745;28;20188;-69
2022/07/27 10:34:37;;;;;;;3.60;1.88;;;;;;;28.64;35.48;99106.25;5176289;28;20731;-69
2022/07/27 10:37:30;;;;;;;4.20;2.25;;;;;;;28.34;36.96;99098.59;5169351;28;20072;-69
2022/07/27 10:40:35;;;;;;;2.88;2.08;;;;;;;27.30;37.47;99108.47;5168865;28;20543;-69
2022/07/27 10:43:26;;;;;;;6.07;2.08;;;;;;;28.34;35.71;99093.97;5164914;28;20097;-69
2022/07/27 10:46:20;;;;;;;2.78;2.33;;;;;;;29.25;34.90;99100.50;5171788;28;20551;-69
2022/07/27 10:49:17;;;;;;;;;;;;;;;29.94;34.29;99096.78;5184456;28;20077;-69
2022/07/27 10:52:41;;;;;;;11.18;2.20;;;;;;;30.63;32.99;99090.94;5175594;28;20208;-69
2022/07/27 10:55:37;;;;;;;3.05;2.03;;;;;;;31.29;32.64;99090.06;5172840;28;20053;-69
2022/07/27 10:58:27;;;;;;;3.63;2.03;;;;;;;31.62;31.23;99093.28;5176231;28;20064;-69
2022/07/27 11:01:18;;;;;;;2.88;1.80;;;;;;;31.44;30.64;99075.53;5175178;28;20567;-68
2022/07/27 11:04:09;;;;;;;4.85;1.90;;;;;;;30.35;32.13;99081.31;5179765;28;20073;-68
2022/07/27 11:07:00;;;;;;;3.05;1.70;;;;;;;29.74;33.17;99081.13;5181710;28;20271;-67
2022/07/27 11:10:11;;;;;;;5.38;1.60;;;;;;;28.29;34.73;99083.00;5184251;28;20168;-68
2022/07/27 11:13:03;;;;;;;1.60;1.50;;;;;;;28.00;35.90;99092.50;5175930;28;20076;-68
2022/07/27 11:16:07;;;;;;;3.33;1.48;;;;;;;27.17;37.39;99081.59;5180898;28;20057;-67
2022/07/27 11:19:16;;;;;;;2.13;1.65;;;;;;;27.48;36.83;99071.94;5183770;28;20056;-67
2022/07/27 11:22:07;;;;;;;7.40;1.50;;;;;;;27.71;35.75;99078.22;5179694;28;20076;-67
2022/07/27 11:25:17;;;;;;;1.83;1.38;;;;;;;28.26;36.49;99088.97;5175493;28;20425;-68
2022/07/27 11:28:07;;;;;;;3.25;1.38;;;;;;;27.37;35.65;99070.16;5176511;28;20108;-68
2022/07/27 11:30:58;;;;;;;4.57;1.35;;;;;;;26.40;36.43;99072.13;5168923;28;20166;-68
2022/07/27 11:33:54;;;;;;;2.67;1.42;;;;;;;27.41;34.02;99074.03;5167298;28;20140;-67
2022/07/27 11:36:48;;;;;;;4.03;1.42;;;;;;;26.69;34.51;99064.78;5170099;28;20422;-68
2022/07/27 11:39:39;;;;;;;2.60;1.33;;;;;;;28.35;34.64;99064.81;5170411;28;20045;-69
2022/07/27 11:42:49;;;;;;;7.07;1.20;;;;;;;28.64;32.80;99062.59;5170559;28;20058;-67
2022/07/27 11:45:40;;;;;;;6.53;2.20;;;;;;;29.44;33.71;99040.78;5171794;28;20045;-67
2022/07/27 11:48:31;;;;;;;1.85;1.23;;;;;;;29.42;33.87;99045.69;5177159;28;20148;-66
2022/07/27 11:51:42;;;;;;;3.78;1.60;;;;;;;28.52;33.37;99045.63;5172089;28;20060;-66
2022/07/27 11:54:38;;;;;;;2.15;1.48;;;;;;;28.27;35.21;99048.88;5177687;28;20057;-68
2022/07/27 11:57:32;;;;;;;3.25;1.30;;;;;;;27.78;35.54;99055.22;5194498;28;20050;-68
2022/07/27 12:00:23;;;;;;;6.00;1.58;;;;;;;27.90;35.28;99048.78;5199605;28;20060;-68
2022/07/27 12:03:22;;;;;;;3.33;1.23;;;;;;;28.05;34.49;99059.88;5182208;28;20057;-68
2022/07/27 12:06:34;;;;;;;3.75;1.48;;;;;;;27.76;34.06;99051.91;5197915;28;20064;-68
2022/07/27 12:09:25;;;;;;;2.60;1.20;;;;;;;28.10;32.79;99049.81;5199222;28;20049;-68
2022/07/27 12:12:24;;;;;;;7.97;1.63;;;;;;;28.09;34.45;99050.91;5196819;28;20059;-68
2022/07/27 12:15:17;;;;;;;2.83;1.40;;;;;;;28.14;32.91;99052.03;5186626;28;20102;-69
2022/07/27 12:18:43;;;;;;;1.52;1.20;;;;;;;27.56;35.24;99049.72;5195985;28;20088;-69
2022/07/27 12:21:33;;;;;;;2.53;1.60;;;;;;;26.91;35.46;99029.47;5201614;28;20069;-69
2022/07/27 12:24:40;;;;;;;2.55;1.38;;;;;;;27.28;35.38;99034.38;5176645;28;20056;-68
2022/07/27 12:27:30;;;;;;;1.55;1.10;;;;;;;28.40;35.03;99051.22;5192621;28;20216;-68
2022/07/27 12:30:30;;;;;;;2.78;1.20;;;;;;;27.55;34.48;99039.06;5196926;28;20064;-68
2022/07/27 12:33:39;;;;;;;2.72;1.25;;;;;;;28.24;33.93;99049.41;5161380;28;20060;-68
2022/07/27 12:36:30;;;;;;;1.63;1.48;;;;;;;27.26;33.12;99046.59;5172717;28;20144;-68
2022/07/27 12:39:25;;;;;;;1.42;1.20;;;;;;;27.40;33.53;99050.59;5183132;28;20081;-68
2022/07/27 12:42:15;;;;;;;2.67;1.30;;;;;;;27.53;33.40;99043.97;5179663;28;20073;-69
2022/07/27 12:45:17;;;;;;;1.52;1.05;;;;;;;27.86;33.29;99034.84;5179196;28;20037;-70
2022/07/27 12:48:18;;;;;;;2.30;1.40;;;;;;;27.82;31.78;99039.19;5180488;28;20084;-69
2022/07/27 12:51:09;;;;;;;2.72;1.77;;;;;;;28.34;30.86;99028.53;5172692;28;20134;-69
2022/07/27 12:54:00;;;;;;;2.40;1.27;;;;;;;28.41;32.03;99028.34;5171836;28;20069;-70
2022/07/27 12:56:51;;;;;;;3.20;1.40;;;;;;;28.39;33.20;99024.19;5168668;28;20072;-71
2022/07/27 12:59:43;;;;;;;3.53;1.50;;;;;;;27.39;34.68;99021.75;5168645;28;20656;-69
2022/07/27 13:02:34;;;;;;;2.78;1.60;;;;;;;27.36;35.27;99035.84;5166708;28;20442;-67
2022/07/27 13:05:25;;;;;;;4.05;1.40;;;;;;;27.62;35.66;99018.75;5170340;28;20073;-68
2022/07/27 13:08:15;;;;;;;6.13;1.33;;;;;;;28.13;34.80;99018.50;5169976;28;20061;-69
2022/07/27 13:11:06;;;;;;;3.10;1.30;;;;;;;27.76;35.43;99029.25;5181791;28;20064;-68
2022/07/27 13:13:56;;;;;;;1.40;1.27;;;;;;;27.73;33.53;99019.69;5179333;28;20054;-69
2022/07/27 13:16:47;;;;;;;3.63;1.58;;;;;;;27.46;34.39;99019.66;5175133;28;20050;-68
2022/07/27 13:19:37;;;;;;;2.83;1.52;;;;;;;28.20;33.80;99013.66;5177277;28;20060;-70
2022/07/27 13:22:28;;;;;;;3.45;1.35;;;;;;;28.79;34.27;99018.25;5175297;28;20060;-68
2022/07/27 13:25:18;;;;;;;1.67;1.23;;;;;;;28.35;34.21;99026.63;5173926;28;20056;-68
2022/07/27 13:28:09;;;;;;;7.68;1.63;;;;;;;26.62;36.55;99017.91;5169155;28;20060;-68
2022/07/27 13:31:00;;;;;;;3.05;1.30;;;;;;;25.18;37.49;99010.78;5168167;28;20073;-67
2022/07/27 13:33:50;;;;;;;2.40;1.25;;;;;;;26.25;36.88;99034.63;5176846;28;20053;-68
2022/07/27 13:36:41;;;;;;;2.55;1.30;;;;;;;26.82;35.76;99035.56;5175700;28;20068;-70
2022/07/27 13:39:31;;;;;;;2.33;1.50;;;;;;;26.96;35.57;99031.47;5179774;28;20556;-70
2022/07/27 13:42:24;;;;;;;2.28;1.20;;;;;;;26.43;36.86;99014.56;5181243;28;20053;-69